Terminal Aerodrome Forecast
Issued by NWS

Home | Current Version | Previous Version | Text Only | Print | Product List | Glossary On
Versions: 1 2 3 4 5 6 7 8 9 10 11 12
000
FTUS45 KREV 281100
TAFMMH
TAF
KMMH 281125Z 2812/2912 VRB04KT P6SM SKC
     FM281700 12007KT P6SM SCT180
     FM282200 25010KT P6SM SCT100 SCT180
     FM290400 30008KT P6SM SCT180=

USA.gov is the U.S. government's official web portal to all federal, state and local government web resources and services.